Ana Sayfa
METAR-TAF:

METAR-TAF

Havaalanları :

Rowan County Airport

Salisbury, Kuzey Carolina, Amerika Birleşik Devletleri

Enlem: 35-39N, Boylam: 080-31W, yükseklik: 236 m

Güncel hava durumu gözlemi

Rapor saat 07:35 UTC de 24 dakika önce yapıldı.
Sakin rüzgar
Sıcaklık 18°C
Nem 100%
Basınç 1020 hPa
Görüş mesafesi: 16.1 km
500 ft yükseklikte parçalı bulutlu
1300 ft yükseklikte parçalı çok bulutlu
1900 ft yükseklikte çok bulutlu

METAR: KRUQ 250735Z AUTO 00000KT 10SM SCT005 BKN013 OVC019 18/18 A3012 RMK AO2 P0007 T01800180

Saat: 03:59 (07:59 UTC)


TAF: eksik

4.000'den fazla havaalanı için hava durumu gözlemleri ve tahminleri (METAR ve TAF raporları).

Kullanılabilir istasyonlar harita üzerinde sarı ve kırmızı noktalarla gösterilir.

İstasyonun adını görmek için fareyi noktanın üzerinde gezdirin.

Sonrasında hava gözlem ve tahminlerini görmek için tıklayın.

Haritayı değiştirmek için: yaklaştırmak için siyah artı işaretli yeşil düğmeye ve uzaklaştırmak için de eksi işaretli düğmeye hızla tıklayın; bitişik haritalar için yeşil okları kullanın.


METAR-TAF: